createdAt,value
2022-11-24T00:00:03.910Z,92.10
2022-11-24T00:00:13.469Z,92.10
2022-11-24T00:00:22.984Z,92.20
2022-11-24T00:00:32.419Z,92.30
2022-11-24T00:00:41.869Z,92.20
2022-11-24T00:00:51.355Z,92.10
2022-11-24T00:01:00.820Z,92.10
2022-11-24T00:01:10.260Z,92.20
2022-11-24T00:01:19.674Z,92.20
2022-11-24T00:01:29.156Z,92.40
2022-11-24T00:01:38.605Z,92.40
2022-11-24T00:01:48.089Z,92.50
2022-11-24T00:01:57.570Z,92.40
2022-11-24T00:02:07.082Z,92.40
2022-11-24T00:02:16.569Z,92.40
2022-11-24T00:02:25.941Z,92.40
2022-11-24T00:02:44.866Z,92.40
2022-11-24T00:02:54.247Z,92.30
2022-11-24T00:03:03.768Z,92.20
2022-11-24T00:03:13.189Z,92.20
2022-11-24T00:03:22.698Z,92.30
2022-11-24T00:03:32.063Z,92.30
2022-11-24T00:03:41.599Z,92.20
2022-11-24T00:03:50.927Z,92.10
2022-11-24T00:04:00.373Z,92.10
2022-11-24T00:04:09.815Z,92.10
2022-11-24T00:04:19.267Z,92.10
2022-11-24T00:04:28.693Z,92.20
2022-11-24T00:04:38.165Z,92.30
2022-11-24T00:04:47.599Z,92.50
2022-11-24T00:04:57.038Z,92.60
2022-11-24T00:05:06.472Z,92.60
2022-11-24T00:05:15.957Z,92.50
2022-11-24T00:05:34.870Z,92.60
2022-11-24T00:05:44.301Z,92.60
2022-11-24T00:05:53.754Z,92.60
2022-11-24T00:06:03.202Z,92.50
2022-11-24T00:06:12.691Z,92.50
2022-11-24T00:06:22.144Z,92.40
2022-11-24T00:06:31.630Z,92.50
2022-11-24T00:06:41.060Z,92.40
2022-11-24T00:06:50.483Z,92.40
2022-11-24T00:06:59.934Z,92.30
2022-11-24T00:07:09.489Z,92.30
2022-11-24T00:07:18.868Z,92.30
2022-11-24T00:07:28.342Z,92.30
2022-11-24T00:07:37.818Z,92.30
2022-11-24T00:07:47.254Z,92.30
2022-11-24T00:07:56.690Z,92.30
2022-11-24T00:08:06.084Z,92.30
2022-11-24T00:08:24.985Z,92.40
2022-11-24T00:08:34.422Z,92.50
2022-11-24T00:08:43.873Z,92.50
2022-11-24T00:08:53.338Z,92.50
2022-11-24T00:09:02.784Z,92.50
2022-11-24T00:09:12.212Z,92.50
2022-11-24T00:09:21.658Z,92.50
2022-11-24T00:09:31.105Z,92.60
2022-11-24T00:09:40.536Z,92.60
2022-11-24T00:09:50.046Z,92.60
2022-11-24T00:09:59.503Z,92.60
2022-11-24T00:10:08.964Z,92.60
2022-11-24T00:10:18.421Z,92.60
2022-11-24T00:10:27.866Z,92.60
2022-11-24T00:10:37.332Z,92.50
2022-11-24T00:10:46.807Z,92.50
2022-11-24T00:10:56.331Z,92.40
2022-11-24T00:11:05.790Z,92.40
2022-11-24T00:11:24.712Z,92.60
2022-11-24T00:11:34.186Z,92.50
2022-11-24T00:11:43.628Z,92.50
2022-11-24T00:11:53.078Z,92.60
2022-11-24T00:12:02.545Z,92.60
2022-11-24T00:12:12.007Z,92.70
2022-11-24T00:12:21.477Z,92.70
2022-11-24T00:12:30.948Z,92.70
2022-11-24T00:12:40.386Z,92.70
2022-11-24T00:12:49.811Z,92.60
2022-11-24T00:12:59.284Z,92.50
2022-11-24T00:13:08.750Z,92.50
2022-11-24T00:13:18.198Z,92.40
2022-11-24T00:13:27.694Z,92.40
2022-11-24T00:13:37.113Z,92.40
2022-11-24T00:13:46.556Z,92.40
2022-11-24T00:13:56.011Z,92.40
2022-11-24T00:14:14.910Z,92.30
2022-11-24T00:14:24.360Z,92.30
2022-11-24T00:14:33.988Z,92.30
2022-11-24T00:14:43.282Z,92.30
2022-11-24T00:14:52.688Z,92.30
2022-11-24T00:15:02.113Z,92.30
2022-11-24T00:15:11.559Z,92.50
2022-11-24T00:15:21.026Z,92.60
2022-11-24T00:15:30.507Z,92.60
2022-11-24T00:15:39.955Z,92.70
2022-11-24T00:15:49.379Z,92.70
2022-11-24T00:15:58.967Z,92.70
2022-11-24T00:16:08.424Z,92.60
2022-11-24T00:16:17.886Z,92.60
2022-11-24T00:16:27.425Z,92.50
2022-11-24T00:16:36.954Z,92.40
2022-11-24T00:16:46.281Z,92.30
2022-11-24T00:16:55.715Z,92.30
2022-11-24T00:17:14.484Z,92.40
2022-11-24T00:17:23.940Z,92.40
2022-11-24T00:17:33.407Z,92.40
2022-11-24T00:17:42.850Z,92.40
2022-11-24T00:17:52.300Z,92.30
2022-11-24T00:18:01.739Z,92.30
2022-11-24T00:18:11.192Z,92.30
2022-11-24T00:18:20.616Z,92.40
2022-11-24T00:18:30.063Z,92.50
2022-11-24T00:18:39.509Z,92.50
2022-11-24T00:18:48.963Z,92.60
2022-11-24T00:18:58.480Z,92.50
2022-11-24T00:19:07.959Z,92.50
2022-11-24T00:19:19.970Z,92.40
2022-11-24T00:19:26.814Z,92.50
2022-11-24T00:19:36.255Z,92.40
2022-11-24T00:19:45.707Z,92.60
2022-11-24T00:20:04.608Z,92.60
2022-11-24T00:20:14.082Z,92.60
2022-11-24T00:20:23.492Z,92.60
2022-11-24T00:20:32.929Z,92.60
2022-11-24T00:20:42.380Z,92.50
2022-11-24T00:20:51.811Z,92.50
2022-11-24T00:21:01.243Z,92.50
2022-11-24T00:21:10.793Z,92.40
2022-11-24T00:21:20.281Z,92.30
2022-11-24T00:21:29.750Z,92.30
2022-11-24T00:21:39.256Z,92.20
2022-11-24T00:21:48.717Z,92.30
2022-11-24T00:21:58.201Z,92.30
2022-11-24T00:22:07.863Z,92.30
2022-11-24T00:22:17.327Z,92.40
2022-11-24T00:22:26.739Z,92.40
2022-11-24T00:22:36.153Z,92.30
2022-11-24T00:22:45.582Z,92.30
2022-11-24T00:23:04.488Z,92.20
2022-11-24T00:23:13.928Z,92.30
2022-11-24T00:23:23.355Z,92.30
2022-11-24T00:23:32.782Z,92.40
2022-11-24T00:23:42.227Z,92.40
2022-11-24T00:23:51.696Z,92.40
2022-11-24T00:24:01.138Z,92.40
2022-11-24T00:24:10.565Z,92.50
2022-11-24T00:24:20.074Z,92.60
2022-11-24T00:24:29.511Z,92.70
2022-11-24T00:24:38.971Z,92.70
2022-11-24T00:24:48.438Z,92.80
2022-11-24T00:24:57.928Z,92.90
2022-11-24T00:25:07.391Z,92.80
2022-11-24T00:25:16.820Z,92.80
2022-11-24T00:25:26.243Z,92.70
2022-11-24T00:25:35.671Z,92.80
2022-11-24T00:25:54.589Z,92.80
2022-11-24T00:26:04.032Z,92.90
2022-11-24T00:26:13.454Z,92.90
2022-11-24T00:26:22.925Z,92.90
2022-11-24T00:26:32.440Z,92.90
2022-11-24T00:26:41.848Z,92.90
2022-11-24T00:26:51.296Z,92.90
2022-11-24T00:27:00.750Z,93.00
2022-11-24T00:27:10.253Z,93.10
2022-11-24T00:27:19.716Z,93.10
2022-11-24T00:27:29.136Z,93.20
2022-11-24T00:27:38.578Z,93.10
2022-11-24T00:27:48.019Z,93.00
2022-11-24T00:27:57.486Z,93.00
2022-11-24T00:28:06.906Z,92.90
2022-11-24T00:28:16.320Z,92.90
2022-11-24T00:28:25.844Z,92.90
2022-11-24T00:28:44.697Z,93.00
2022-11-24T00:28:54.218Z,93.00
2022-11-24T00:29:03.633Z,93.10
2022-11-24T00:29:13.091Z,93.10
2022-11-24T00:29:22.532Z,93.10
2022-11-24T00:29:31.992Z,93.00
2022-11-24T00:29:41.458Z,93.00
2022-11-24T00:29:50.944Z,93.00
2022-11-24T00:30:00.374Z,92.90
2022-11-24T00:30:09.853Z,92.80
2022-11-24T00:30:19.284Z,92.80
2022-11-24T00:30:28.789Z,92.80
2022-11-24T00:30:38.221Z,92.70
2022-11-24T00:30:47.756Z,92.60
2022-11-24T00:30:57.216Z,92.70
2022-11-24T00:31:06.634Z,92.80
2022-11-24T00:31:17.524Z,92.80
2022-11-24T00:31:34.985Z,92.70
2022-11-24T00:31:44.346Z,92.70
2022-11-24T00:31:53.760Z,92.80
2022-11-24T00:32:03.336Z,92.80
2022-11-24T00:32:12.787Z,92.80
2022-11-24T00:32:22.231Z,92.80
2022-11-24T00:32:31.644Z,92.80
2022-11-24T00:32:41.077Z,92.70
2022-11-24T00:32:50.511Z,92.60
2022-11-24T00:32:59.948Z,92.60
2022-11-24T00:33:09.403Z,92.50
2022-11-24T00:33:18.839Z,92.40
2022-11-24T00:33:28.278Z,92.30
2022-11-24T00:33:37.779Z,92.30
2022-11-24T00:33:47.240Z,92.40
2022-11-24T00:33:56.758Z,92.40
2022-11-24T00:34:06.212Z,92.30
2022-11-24T00:34:15.647Z,92.20
2022-11-24T00:34:34.833Z,92.10
2022-11-24T00:34:43.998Z,92.10
2022-11-24T00:34:53.464Z,92.00
2022-11-24T00:35:02.916Z,92.00
2022-11-24T00:35:12.357Z,92.00
2022-11-24T00:35:21.779Z,91.90
2022-11-24T00:35:31.285Z,91.80
2022-11-24T00:35:40.752Z,91.80
2022-11-24T00:35:50.180Z,91.80
2022-11-24T00:35:59.600Z,91.90
2022-11-24T00:36:09.042Z,91.90
2022-11-24T00:36:18.499Z,92.00
2022-11-24T00:36:27.946Z,92.00
2022-11-24T00:36:37.379Z,92.10
2022-11-24T00:36:46.808Z,92.20
2022-11-24T00:36:56.233Z,92.20
2022-11-24T00:37:05.651Z,92.20
2022-11-24T00:37:24.541Z,92.10
2022-11-24T00:37:33.998Z,92.10
2022-11-24T00:37:43.441Z,92.20
2022-11-24T00:37:52.896Z,92.30
2022-11-24T00:38:02.574Z,92.40
2022-11-24T00:38:11.994Z,92.50
2022-11-24T00:38:21.471Z,92.50
2022-11-24T00:38:30.974Z,92.40
2022-11-24T00:38:40.398Z,92.30
2022-11-24T00:38:49.838Z,92.20
2022-11-24T00:38:59.298Z,92.30
2022-11-24T00:39:08.756Z,92.20
2022-11-24T00:39:18.179Z,92.20
2022-11-24T00:39:27.598Z,92.10
2022-11-24T00:39:37.025Z,92.20
2022-11-24T00:39:46.443Z,92.20
2022-11-24T00:39:55.880Z,92.20
2022-11-24T00:40:14.777Z,92.10
2022-11-24T00:40:24.247Z,92.00
2022-11-24T00:40:35.176Z,92.10
2022-11-24T00:40:43.107Z,92.10
2022-11-24T00:40:52.550Z,92.10
2022-11-24T00:41:02.034Z,92.30
2022-11-24T00:41:11.477Z,92.30
2022-11-24T00:41:20.908Z,92.20
2022-11-24T00:41:30.407Z,92.30
2022-11-24T00:41:39.865Z,92.30
2022-11-24T00:41:49.311Z,92.40
2022-11-24T00:41:58.757Z,92.40
2022-11-24T00:42:08.192Z,92.40
2022-11-24T00:42:17.623Z,92.40
2022-11-24T00:42:27.104Z,92.40
2022-11-24T00:42:36.532Z,92.30
2022-11-24T00:42:46.029Z,92.30
2022-11-24T00:43:05.068Z,92.10
2022-11-24T00:43:14.510Z,92.00
2022-11-24T00:43:23.983Z,92.10
2022-11-24T00:43:33.440Z,92.00
2022-11-24T00:43:42.887Z,92.00
2022-11-24T00:43:52.354Z,92.10
2022-11-24T00:44:01.832Z,92.10
2022-11-24T00:44:11.273Z,92.20
2022-11-24T00:44:20.730Z,92.20
2022-11-24T00:44:30.209Z,92.40
2022-11-24T00:44:39.630Z,92.50
2022-11-24T00:44:49.070Z,92.50
2022-11-24T00:44:58.544Z,92.50
2022-11-24T00:45:13.888Z,92.50
2022-11-24T00:45:17.487Z,92.60
2022-11-24T00:45:26.959Z,92.70
2022-11-24T00:45:36.462Z,92.70
2022-11-24T00:45:45.986Z,92.80
2022-11-24T00:46:04.878Z,92.90
2022-11-24T00:46:14.309Z,93.00
2022-11-24T00:46:23.857Z,93.10
2022-11-24T00:46:33.153Z,93.30
2022-11-24T00:46:42.637Z,93.40
2022-11-24T00:46:52.076Z,93.50
2022-11-24T00:47:01.532Z,93.60
2022-11-24T00:47:11.065Z,93.70
2022-11-24T00:47:20.351Z,93.80
2022-11-24T00:47:29.694Z,93.90
2022-11-24T00:47:39.143Z,94.10
2022-11-24T00:47:48.595Z,94.20
2022-11-24T00:47:58.056Z,94.30
2022-11-24T00:48:07.491Z,94.30
2022-11-24T00:48:16.943Z,94.40
2022-11-24T00:48:26.449Z,94.60
2022-11-24T00:48:35.919Z,94.60
2022-11-24T00:48:54.801Z,94.80
2022-11-24T00:49:04.276Z,94.80
2022-11-24T00:49:13.716Z,94.90
2022-11-24T00:49:23.195Z,95.00
2022-11-24T00:49:32.623Z,95.00
2022-11-24T00:49:42.065Z,95.00
2022-11-24T00:49:51.502Z,95.00
2022-11-24T00:50:00.925Z,95.00
2022-11-24T00:50:10.351Z,95.20
2022-11-24T00:50:19.762Z,95.20
2022-11-24T00:50:29.186Z,95.40
2022-11-24T00:50:38.619Z,95.40
2022-11-24T00:50:48.039Z,95.50
2022-11-24T00:50:57.561Z,95.60
2022-11-24T00:51:06.981Z,95.60
2022-11-24T00:51:16.419Z,95.70
2022-11-24T00:51:25.868Z,95.80
2022-11-24T00:51:44.717Z,95.60
2022-11-24T00:51:54.171Z,95.60
2022-11-24T00:52:03.598Z,95.60
2022-11-24T00:52:13.018Z,95.50
2022-11-24T00:52:22.435Z,95.50
2022-11-24T00:52:31.856Z,95.50
2022-11-24T00:52:41.320Z,95.50
2022-11-24T00:52:50.776Z,95.40
2022-11-24T00:53:00.221Z,95.20
2022-11-24T00:53:09.668Z,95.20
2022-11-24T00:53:19.119Z,95.30
2022-11-24T00:53:28.556Z,95.20
2022-11-24T00:53:37.996Z,95.10
2022-11-24T00:53:47.441Z,95.00
2022-11-24T00:53:56.903Z,94.80
2022-11-24T00:54:06.414Z,94.90
2022-11-24T00:54:15.808Z,94.80
2022-11-24T00:54:35.237Z,94.70
2022-11-24T00:54:44.238Z,94.70
2022-11-24T00:54:53.709Z,94.70
2022-11-24T00:55:03.149Z,94.60
2022-11-24T00:55:12.583Z,94.50
2022-11-24T00:55:22.034Z,94.30
2022-11-24T00:55:31.473Z,94.20
2022-11-24T00:55:40.911Z,94.20
2022-11-24T00:55:50.338Z,94.10
2022-11-24T00:55:59.789Z,94.10
2022-11-24T00:56:09.224Z,94.20
2022-11-24T00:56:18.673Z,94.20
2022-11-24T00:56:28.108Z,94.20
2022-11-24T00:56:37.529Z,94.20
2022-11-24T00:56:46.969Z,94.30
2022-11-24T00:56:56.396Z,94.30
2022-11-24T00:57:05.850Z,94.40
2022-11-24T00:57:24.670Z,94.40
2022-11-24T00:57:34.102Z,94.50
2022-11-24T00:57:43.535Z,94.50
2022-11-24T00:57:52.981Z,94.50
2022-11-24T00:58:02.416Z,94.50
2022-11-24T00:58:11.838Z,94.50
2022-11-24T00:58:21.259Z,94.40
2022-11-24T00:58:30.714Z,94.40
2022-11-24T00:58:40.156Z,94.30
2022-11-24T00:58:49.580Z,94.30
2022-11-24T00:58:59.067Z,94.20
2022-11-24T00:59:08.504Z,94.20
2022-11-24T00:59:17.953Z,94.10
2022-11-24T00:59:27.372Z,94.10
2022-11-24T00:59:36.812Z,94.00
2022-11-24T00:59:46.234Z,93.90
2022-11-24T00:59:55.709Z,93.90
2022-11-24T01:00:14.596Z,93.80
2022-11-24T01:00:24.047Z,93.70
2022-11-24T01:00:33.634Z,93.70
2022-11-24T01:00:43.231Z,93.70
2022-11-24T01:00:52.684Z,93.80
2022-11-24T01:01:02.255Z,93.90
2022-11-24T01:01:11.767Z,93.90
2022-11-24T01:01:21.117Z,94.00
2022-11-24T01:01:30.537Z,94.10
2022-11-24T01:01:40.005Z,94.20
2022-11-24T01:01:49.453Z,94.20
2022-11-24T01:01:58.829Z,94.20
2022-11-24T01:02:08.249Z,94.10
2022-11-24T01:02:17.648Z,94.00
2022-11-24T01:02:27.124Z,93.90
2022-11-24T01:02:36.580Z,93.90
2022-11-24T01:02:45.937Z,93.90
2022-11-24T01:03:04.907Z,94.00
2022-11-24T01:03:14.234Z,94.00
2022-11-24T01:03:23.660Z,93.90
2022-11-24T01:03:33.112Z,93.80
2022-11-24T01:03:42.547Z,93.70
2022-11-24T01:03:51.983Z,93.60
2022-11-24T01:04:01.483Z,93.70
2022-11-24T01:04:10.994Z,93.80
2022-11-24T01:04:20.378Z,93.90
2022-11-24T01:04:29.794Z,94.00
2022-11-24T01:04:39.228Z,94.00
2022-11-24T01:04:48.639Z,94.10
2022-11-24T01:04:58.059Z,94.10
2022-11-24T01:05:07.516Z,94.00
2022-11-24T01:05:16.939Z,94.00
2022-11-24T01:05:26.425Z,93.90
2022-11-24T01:05:35.870Z,93.80
2022-11-24T01:05:54.723Z,93.70
2022-11-24T01:06:04.147Z,93.60
2022-11-24T01:06:13.601Z,93.60
2022-11-24T01:06:23.061Z,93.50
2022-11-24T01:06:32.801Z,93.50
2022-11-24T01:06:41.987Z,93.50
2022-11-24T01:06:51.454Z,93.50
2022-11-24T01:07:00.908Z,93.60
2022-11-24T01:07:10.382Z,93.60
2022-11-24T01:07:19.877Z,93.70
2022-11-24T01:07:29.410Z,93.80
2022-11-24T01:07:38.760Z,93.80
2022-11-24T01:07:48.228Z,93.80
2022-11-24T01:07:57.613Z,93.80
2022-11-24T01:08:07.080Z,93.70
2022-11-24T01:08:16.507Z,93.70
2022-11-24T01:08:25.931Z,93.70
2022-11-24T01:08:44.812Z,93.80
2022-11-24T01:08:54.263Z,93.80
2022-11-24T01:09:03.716Z,93.90
2022-11-24T01:09:13.138Z,94.10
2022-11-24T01:09:22.559Z,94.20
2022-11-24T01:09:31.977Z,94.30
2022-11-24T01:09:41.576Z,94.30
2022-11-24T01:09:51.002Z,94.40
2022-11-24T01:10:00.436Z,94.40
2022-11-24T01:10:09.867Z,94.40
2022-11-24T01:10:19.291Z,94.30
2022-11-24T01:10:28.718Z,94.30
2022-11-24T01:10:38.159Z,94.20
2022-11-24T01:10:47.614Z,94.10
2022-11-24T01:10:57.065Z,94.10
2022-11-24T01:11:06.518Z,94.00
2022-11-24T01:11:15.966Z,93.90
2022-11-24T01:11:34.815Z,93.90
2022-11-24T01:11:44.269Z,93.90
2022-11-24T01:11:53.726Z,93.80
2022-11-24T01:12:03.194Z,93.80
2022-11-24T01:12:12.635Z,93.80
2022-11-24T01:12:22.066Z,93.80
2022-11-24T01:12:31.516Z,93.70
2022-11-24T01:12:40.956Z,93.70
2022-11-24T01:12:50.388Z,93.70
2022-11-24T01:12:59.863Z,93.60
2022-11-24T01:13:09.317Z,93.60
2022-11-24T01:13:18.715Z,93.50
2022-11-24T01:13:28.150Z,93.40
2022-11-24T01:13:37.626Z,93.40
2022-11-24T01:13:47.071Z,93.30
2022-11-24T01:13:56.482Z,93.30
2022-11-24T01:14:05.941Z,93.20
2022-11-24T01:14:24.844Z,93.00
2022-11-24T01:14:34.537Z,93.00
2022-11-24T01:14:43.694Z,93.00
2022-11-24T01:14:53.104Z,93.00
2022-11-24T01:15:02.538Z,93.00
2022-11-24T01:15:11.976Z,93.00
2022-11-24T01:15:21.430Z,93.00
2022-11-24T01:15:30.916Z,93.10
2022-11-24T01:15:40.450Z,93.20
2022-11-24T01:15:49.827Z,93.40
2022-11-24T01:15:59.322Z,93.50
2022-11-24T01:16:08.742Z,93.50
2022-11-24T01:16:18.223Z,93.50
2022-11-24T01:16:27.667Z,93.50
2022-11-24T01:16:37.048Z,93.50
2022-11-24T01:16:46.504Z,93.40
2022-11-24T01:16:55.988Z,93.30
2022-11-24T01:17:14.871Z,93.30
2022-11-24T01:17:24.329Z,93.30
2022-11-24T01:17:33.891Z,93.20
2022-11-24T01:17:43.333Z,93.20
2022-11-24T01:17:52.815Z,93.10
2022-11-24T01:18:02.243Z,93.10
2022-11-24T01:18:11.700Z,93.00
2022-11-24T01:18:21.134Z,93.00
2022-11-24T01:18:30.569Z,93.10
2022-11-24T01:18:40.033Z,93.10
2022-11-24T01:18:49.490Z,93.10
2022-11-24T01:18:58.969Z,93.00
2022-11-24T01:19:08.429Z,93.00
2022-11-24T01:19:17.880Z,93.00
2022-11-24T01:19:27.345Z,93.00
2022-11-24T01:19:36.770Z,93.20
2022-11-24T01:19:46.188Z,93.20
2022-11-24T01:19:55.673Z,93.30
2022-11-24T01:20:14.546Z,93.40
2022-11-24T01:20:23.975Z,93.30
2022-11-24T01:20:33.435Z,93.30
2022-11-24T01:20:42.909Z,93.30
2022-11-24T01:20:52.335Z,93.30
2022-11-24T01:21:04.642Z,93.40
2022-11-24T01:21:11.188Z,93.40
2022-11-24T01:21:20.599Z,93.40
2022-11-24T01:21:30.013Z,93.30
2022-11-24T01:21:39.439Z,93.40
2022-11-24T01:21:48.854Z,93.50
2022-11-24T01:21:58.291Z,93.50
2022-11-24T01:22:07.734Z,93.40
2022-11-24T01:22:17.220Z,93.30
2022-11-24T01:22:26.673Z,93.30
2022-11-24T01:22:36.066Z,93.40
2022-11-24T01:22:54.908Z,93.40
2022-11-24T01:23:04.331Z,93.40
2022-11-24T01:23:13.785Z,93.30
2022-11-24T01:23:23.266Z,93.30
2022-11-24T01:23:32.696Z,93.30
2022-11-24T01:23:42.154Z,93.40
2022-11-24T01:23:51.578Z,93.40
2022-11-24T01:24:01.098Z,93.40
2022-11-24T01:24:10.574Z,93.40
2022-11-24T01:24:20.001Z,93.40
2022-11-24T01:24:29.422Z,93.40
2022-11-24T01:24:38.860Z,93.30
2022-11-24T01:24:48.331Z,93.20
2022-11-24T01:24:57.783Z,93.20
2022-11-24T01:25:07.250Z,93.20
2022-11-24T01:25:16.736Z,93.20
2022-11-24T01:25:26.155Z,93.10
2022-11-24T01:25:35.583Z,93.00
2022-11-24T01:25:54.476Z,93.10
2022-11-24T01:26:04.038Z,93.10
2022-11-24T01:26:13.477Z,93.00
2022-11-24T01:26:23.100Z,93.00
2022-11-24T01:26:32.522Z,93.00
2022-11-24T01:26:41.952Z,92.90
2022-11-24T01:26:51.391Z,92.90
2022-11-24T01:27:00.865Z,92.80
2022-11-24T01:27:10.294Z,92.80
2022-11-24T01:27:19.719Z,93.00
2022-11-24T01:27:29.179Z,93.00
2022-11-24T01:27:38.653Z,93.10
2022-11-24T01:27:48.094Z,93.10
2022-11-24T01:27:57.537Z,93.10
2022-11-24T01:28:07.018Z,93.00
2022-11-24T01:28:16.541Z,92.90
2022-11-24T01:28:26.012Z,92.90
2022-11-24T01:28:47.557Z,92.80
2022-11-24T01:28:54.396Z,92.80
2022-11-24T01:29:03.905Z,92.70
2022-11-24T01:29:13.385Z,92.70
2022-11-24T01:29:22.817Z,92.70
2022-11-24T01:29:32.223Z,92.70
2022-11-24T01:29:41.646Z,92.80
2022-11-24T01:29:51.095Z,92.80
2022-11-24T01:30:00.582Z,93.00
2022-11-24T01:30:10.019Z,93.00
2022-11-24T01:30:19.453Z,93.00
2022-11-24T01:30:29.088Z,93.00
2022-11-24T01:30:41.372Z,93.10
2022-11-24T01:30:50.829Z,93.20
2022-11-24T01:31:00.288Z,93.30
2022-11-24T01:31:09.696Z,93.30
2022-11-24T01:31:19.126Z,93.30
2022-11-24T01:31:28.573Z,93.20
2022-11-24T01:31:37.943Z,93.30
2022-11-24T01:31:47.396Z,93.20
2022-11-24T01:31:56.824Z,93.30
2022-11-24T01:32:06.243Z,93.30
2022-11-24T01:32:15.696Z,93.40
2022-11-24T01:32:34.633Z,93.50
2022-11-24T01:32:44.067Z,93.70
2022-11-24T01:32:53.530Z,93.70
2022-11-24T01:33:02.959Z,93.70
2022-11-24T01:33:12.392Z,93.70
2022-11-24T01:33:21.804Z,93.80
2022-11-24T01:33:31.227Z,93.80
2022-11-24T01:33:40.725Z,93.80
2022-11-24T01:33:50.161Z,93.80
2022-11-24T01:33:59.597Z,93.80
2022-11-24T01:34:09.014Z,93.80
2022-11-24T01:34:18.479Z,93.80
2022-11-24T01:34:27.932Z,93.90
2022-11-24T01:34:37.387Z,93.90
2022-11-24T01:34:46.805Z,93.90
2022-11-24T01:34:56.255Z,93.90
2022-11-24T01:35:05.695Z,93.90
2022-11-24T01:35:24.580Z,93.90
2022-11-24T01:35:34.099Z,94.00
2022-11-24T01:35:43.536Z,94.00
2022-11-24T01:35:52.987Z,94.20
2022-11-24T01:36:02.439Z,94.20
2022-11-24T01:36:11.907Z,94.30
2022-11-24T01:36:21.408Z,94.30
2022-11-24T01:36:30.844Z,94.30
2022-11-24T01:36:40.259Z,94.20
2022-11-24T01:36:49.695Z,94.20
2022-11-24T01:36:59.196Z,94.10
2022-11-24T01:37:08.626Z,94.10
2022-11-24T01:37:18.052Z,94.00
2022-11-24T01:37:27.464Z,94.00
2022-11-24T01:37:36.915Z,94.10
2022-11-24T01:37:46.402Z,94.10
2022-11-24T01:37:55.895Z,94.00
2022-11-24T01:38:14.786Z,94.00
2022-11-24T01:38:24.228Z,94.10
2022-11-24T01:38:33.687Z,94.10
2022-11-24T01:38:43.135Z,94.00
2022-11-24T01:38:52.566Z,94.00
2022-11-24T01:39:01.991Z,93.90
2022-11-24T01:39:11.484Z,93.90
2022-11-24T01:39:20.962Z,93.90
2022-11-24T01:39:30.455Z,94.00
2022-11-24T01:39:39.917Z,94.00
2022-11-24T01:39:49.343Z,94.00
2022-11-24T01:39:58.773Z,93.90
2022-11-24T01:40:08.225Z,93.90
2022-11-24T01:40:17.703Z,93.80
2022-11-24T01:40:27.166Z,93.80
2022-11-24T01:40:36.598Z,93.70
2022-11-24T01:40:46.039Z,93.70
2022-11-24T01:41:04.936Z,93.70
2022-11-24T01:41:14.391Z,93.80
2022-11-24T01:41:23.807Z,93.90
2022-11-24T01:41:33.231Z,93.80
2022-11-24T01:41:42.722Z,93.80
2022-11-24T01:41:52.154Z,93.70
2022-11-24T01:42:01.593Z,93.70
2022-11-24T01:42:11.046Z,93.70
2022-11-24T01:42:20.518Z,93.60
2022-11-24T01:42:29.945Z,93.60
2022-11-24T01:42:39.379Z,93.50
2022-11-24T01:42:48.876Z,93.50
2022-11-24T01:42:58.369Z,93.40
2022-11-24T01:43:07.880Z,93.40
2022-11-24T01:43:17.317Z,93.40
2022-11-24T01:43:26.756Z,93.50
2022-11-24T01:43:36.204Z,93.50
2022-11-24T01:43:45.640Z,93.60
2022-11-24T01:44:04.585Z,93.80
2022-11-24T01:44:14.010Z,93.80
2022-11-24T01:44:23.533Z,93.70
2022-11-24T01:44:33.586Z,93.70
2022-11-24T01:44:42.569Z,93.60
2022-11-24T01:44:52.052Z,93.60
2022-11-24T01:45:01.526Z,93.50
2022-11-24T01:45:10.947Z,93.50
2022-11-24T01:45:20.490Z,93.50
2022-11-24T01:45:29.965Z,93.50
2022-11-24T01:45:39.397Z,93.50
2022-11-24T01:45:48.877Z,93.50
2022-11-24T01:45:58.416Z,93.50
2022-11-24T01:46:07.798Z,93.60
2022-11-24T01:46:17.265Z,93.60
2022-11-24T01:46:26.671Z,93.60
2022-11-24T01:46:36.238Z,93.60
2022-11-24T01:46:54.885Z,93.50
2022-11-24T01:47:04.327Z,93.50
2022-11-24T01:47:13.753Z,93.50
2022-11-24T01:47:23.226Z,93.50
2022-11-24T01:47:32.656Z,93.60
2022-11-24T01:47:42.081Z,93.60
2022-11-24T01:47:51.537Z,93.60
2022-11-24T01:48:01.012Z,93.60
2022-11-24T01:48:10.450Z,93.50
2022-11-24T01:48:24.418Z,93.50
2022-11-24T01:48:29.360Z,93.40
2022-11-24T01:48:38.789Z,93.40
2022-11-24T01:48:48.243Z,93.50
2022-11-24T01:48:57.689Z,93.50
2022-11-24T01:49:07.148Z,93.60
2022-11-24T01:49:16.596Z,93.60
2022-11-24T01:49:26.084Z,93.60
2022-11-24T01:49:44.931Z,93.60
2022-11-24T01:49:54.369Z,93.50
2022-11-24T01:50:03.814Z,93.30
2022-11-24T01:50:13.229Z,93.20
2022-11-24T01:50:22.683Z,93.20
2022-11-24T01:50:32.104Z,93.10
2022-11-24T01:50:41.517Z,93.20
2022-11-24T01:50:50.954Z,93.30
2022-11-24T01:51:00.400Z,93.30
2022-11-24T01:51:09.822Z,93.40
2022-11-24T01:51:19.311Z,93.40
2022-11-24T01:51:28.731Z,93.40
2022-11-24T01:51:38.235Z,93.40
2022-11-24T01:51:47.713Z,93.40
2022-11-24T01:51:57.171Z,93.40
2022-11-24T01:52:06.596Z,93.40
2022-11-24T01:52:16.014Z,93.40
2022-11-24T01:52:34.918Z,93.30
2022-11-24T01:52:44.359Z,93.40
2022-11-24T01:52:53.817Z,93.40
2022-11-24T01:53:03.255Z,93.30
2022-11-24T01:53:12.699Z,93.40
2022-11-24T01:53:22.182Z,93.50
2022-11-24T01:53:31.679Z,93.50
2022-11-24T01:53:41.138Z,93.50
2022-11-24T01:53:50.561Z,93.50
2022-11-24T01:53:59.985Z,93.60
2022-11-24T01:54:09.425Z,93.60
2022-11-24T01:54:18.850Z,93.60
2022-11-24T01:54:28.307Z,93.60
2022-11-24T01:54:37.733Z,93.50
2022-11-24T01:54:47.282Z,93.40
2022-11-24T01:54:56.706Z,93.30
2022-11-24T01:55:06.126Z,93.30
2022-11-24T01:55:15.557Z,93.30
2022-11-24T01:55:34.465Z,93.20
2022-11-24T01:55:43.907Z,93.10
2022-11-24T01:55:53.366Z,93.10
2022-11-24T01:56:02.834Z,93.20
2022-11-24T01:56:12.283Z,93.30
2022-11-24T01:56:21.717Z,93.30
2022-11-24T01:56:31.155Z,93.30
2022-11-24T01:56:40.574Z,93.40
2022-11-24T01:56:50.020Z,93.40
2022-11-24T01:56:59.455Z,93.50
2022-11-24T01:57:08.903Z,93.40
2022-11-24T01:57:18.363Z,93.30
2022-11-24T01:57:27.817Z,93.20
2022-11-24T01:57:37.235Z,93.10
2022-11-24T01:57:46.661Z,93.10
2022-11-24T01:57:56.091Z,93.10
2022-11-24T01:58:14.983Z,93.30
2022-11-24T01:58:24.475Z,93.40
2022-11-24T01:58:33.897Z,93.40
2022-11-24T01:58:43.313Z,93.50
2022-11-24T01:58:52.753Z,93.30
2022-11-24T01:59:02.201Z,93.20
2022-11-24T01:59:11.621Z,93.20
2022-11-24T01:59:21.057Z,93.30
2022-11-24T01:59:30.498Z,93.30
2022-11-24T01:59:39.919Z,93.40
2022-11-24T01:59:49.331Z,93.50
2022-11-24T01:59:58.760Z,93.60
2022-11-24T02:00:08.183Z,93.50
2022-11-24T02:00:17.624Z,93.50
2022-11-24T02:00:27.064Z,93.60
2022-11-24T02:00:36.510Z,93.60
2022-11-24T02:00:45.955Z,93.60
2022-11-24T02:01:04.943Z,93.50
2022-11-24T02:01:14.367Z,93.50
2022-11-24T02:01:23.776Z,93.50
2022-11-24T02:01:33.247Z,93.60
2022-11-24T02:01:42.661Z,93.60
2022-11-24T02:01:52.156Z,93.70
2022-11-24T02:02:01.561Z,93.90
2022-11-24T02:02:11.076Z,93.90
2022-11-24T02:02:20.516Z,94.00
2022-11-24T02:02:29.946Z,94.00
2022-11-24T02:02:39.426Z,94.10
2022-11-24T02:02:48.847Z,94.00
2022-11-24T02:02:58.236Z,94.00
2022-11-24T02:03:07.619Z,94.10
2022-11-24T02:03:17.043Z,94.10
2022-11-24T02:03:26.514Z,94.10
2022-11-24T02:03:35.944Z,94.20
2022-11-24T02:03:54.832Z,94.20
2022-11-24T02:04:04.295Z,94.20
2022-11-24T02:04:13.779Z,94.10
2022-11-24T02:04:23.197Z,94.10
2022-11-24T02:04:32.943Z,94.00
2022-11-24T02:04:42.129Z,94.10
2022-11-24T02:04:51.555Z,94.10
2022-11-24T02:05:01.121Z,94.00
2022-11-24T02:05:10.548Z,94.00
2022-11-24T02:05:20.034Z,94.10
2022-11-24T02:05:29.478Z,94.10
2022-11-24T02:05:38.917Z,94.30
2022-11-24T02:05:48.323Z,94.30
2022-11-24T02:05:57.764Z,94.50
2022-11-24T02:06:07.193Z,94.50
2022-11-24T02:06:16.645Z,94.50
2022-11-24T02:06:26.084Z,94.40
2022-11-24T02:06:44.951Z,94.50
2022-11-24T02:06:54.367Z,94.50
2022-11-24T02:07:03.814Z,94.50
2022-11-24T02:07:13.334Z,94.50
2022-11-24T02:07:22.777Z,94.70
2022-11-24T02:07:32.232Z,94.70
2022-11-24T02:07:41.659Z,94.80
2022-11-24T02:07:51.068Z,94.80
2022-11-24T02:08:00.481Z,94.80
2022-11-24T02:08:09.934Z,94.80
2022-11-24T02:08:19.365Z,94.80
2022-11-24T02:08:28.783Z,94.80
2022-11-24T02:08:38.199Z,94.80